createdAt,value
2018-12-07T00:00:36.786Z,84.05
2018-12-07T00:01:45.103Z,84.00
2018-12-07T00:02:52.922Z,84.19
2018-12-07T00:04:00.954Z,84.47
2018-12-07T00:05:09.045Z,84.56
2018-12-07T00:06:17.104Z,84.00
2018-12-07T00:07:25.160Z,84.52
2018-12-07T00:08:33.238Z,84.66
2018-12-07T00:09:41.276Z,84.62
2018-12-07T00:10:49.343Z,84.56
2018-12-07T00:11:57.402Z,84.47
2018-12-07T00:13:05.463Z,84.47
2018-12-07T00:14:13.541Z,84.43
2018-12-07T00:15:21.562Z,84.33
2018-12-07T00:16:29.650Z,84.43
2018-12-07T00:17:37.728Z,84.38
2018-12-07T00:18:45.771Z,84.14
2018-12-07T00:19:53.863Z,84.62
2018-12-07T00:21:01.891Z,84.43
2018-12-07T00:22:09.968Z,84.56
2018-12-07T00:23:18.033Z,84.19
2018-12-07T00:24:26.091Z,84.56
2018-12-07T00:25:34.155Z,84.47
2018-12-07T00:26:42.214Z,84.43
2018-12-07T00:27:50.257Z,84.33
2018-12-07T00:28:58.344Z,83.86
2018-12-07T00:30:06.391Z,84.14
2018-12-07T00:31:14.450Z,83.86
2018-12-07T00:32:22.509Z,84.00
2018-12-07T00:33:30.578Z,84.09
2018-12-07T00:34:38.621Z,84.00
2018-12-07T00:35:46.709Z,83.71
2018-12-07T00:36:54.747Z,84.28
2018-12-07T00:38:02.816Z,84.47
2018-12-07T00:39:10.902Z,84.19
2018-12-07T00:40:18.930Z,84.47
2018-12-07T00:41:26.999Z,84.66
2018-12-07T00:42:35.055Z,84.47
2018-12-07T00:43:43.112Z,84.52
2018-12-07T00:44:51.156Z,84.56
2018-12-07T00:45:59.229Z,84.47
2018-12-07T00:47:07.314Z,84.33
2018-12-07T00:48:15.338Z,84.52
2018-12-07T00:49:23.417Z,84.47
2018-12-07T00:50:31.474Z,84.14
2018-12-07T00:51:39.529Z,83.90
2018-12-07T00:52:47.606Z,83.62
2018-12-07T00:53:55.751Z,84.09
2018-12-07T00:55:03.725Z,84.00
2018-12-07T00:56:11.794Z,84.19
2018-12-07T00:57:19.839Z,84.47
2018-12-07T00:58:27.922Z,84.56
2018-12-07T00:59:35.982Z,84.66
2018-12-07T01:00:44.036Z,84.66
2018-12-07T01:01:52.117Z,84.19
2018-12-07T01:03:00.138Z,83.90
2018-12-07T01:04:08.218Z,84.38
2018-12-07T01:05:16.284Z,84.19
2018-12-07T01:06:24.352Z,84.19
2018-12-07T01:07:32.400Z,84.09
2018-12-07T01:08:40.479Z,84.09
2018-12-07T01:09:48.523Z,83.71
2018-12-07T01:10:56.597Z,83.90
2018-12-07T01:12:04.657Z,83.52
2018-12-07T01:13:12.701Z,83.52
2018-12-07T01:14:20.757Z,83.33
2018-12-07T01:15:28.814Z,83.52
2018-12-07T01:16:36.928Z,83.67
2018-12-07T01:17:44.960Z,83.86
2018-12-07T01:18:53.019Z,83.52
2018-12-07T01:20:01.047Z,83.42
2018-12-07T01:21:09.132Z,83.67
2018-12-07T01:22:17.198Z,83.39
2018-12-07T01:23:25.257Z,83.71
2018-12-07T01:24:33.418Z,83.67
2018-12-07T01:25:41.363Z,83.33
2018-12-07T01:26:49.448Z,84.09
2018-12-07T01:27:57.507Z,84.09
2018-12-07T01:29:05.569Z,83.81
2018-12-07T01:30:13.622Z,84.00
2018-12-07T01:31:21.665Z,84.00
2018-12-07T01:32:29.750Z,84.38
2018-12-07T01:33:37.813Z,83.90
2018-12-07T01:34:45.871Z,84.09
2018-12-07T01:35:53.939Z,84.09
2018-12-07T01:37:02.000Z,84.00
2018-12-07T01:38:10.060Z,84.38
2018-12-07T01:39:18.121Z,83.90
2018-12-07T01:40:26.185Z,84.09
2018-12-07T01:41:34.242Z,83.81
2018-12-07T01:42:42.311Z,83.42
2018-12-07T01:43:50.367Z,83.23
2018-12-07T01:44:58.431Z,83.42
2018-12-07T01:46:06.493Z,83.33
2018-12-07T01:47:14.550Z,83.29
2018-12-07T01:48:22.613Z,83.23
2018-12-07T01:49:30.647Z,83.52
2018-12-07T01:50:38.791Z,82.86
2018-12-07T01:51:46.798Z,82.95
2018-12-07T01:52:54.856Z,82.76
2018-12-07T01:54:02.921Z,82.86
2018-12-07T01:55:11.047Z,83.71
2018-12-07T01:56:19.035Z,83.71
2018-12-07T01:57:27.098Z,83.71
2018-12-07T01:58:35.165Z,83.62
2018-12-07T01:59:43.222Z,83.42
2018-12-07T02:00:51.297Z,83.71
2018-12-07T02:01:59.348Z,83.33
2018-12-07T02:03:07.404Z,83.29
2018-12-07T02:04:15.462Z,83.23
2018-12-07T02:05:23.527Z,83.19
2018-12-07T02:06:31.605Z,83.14
2018-12-07T02:07:39.648Z,83.33
2018-12-07T02:08:47.711Z,83.71
2018-12-07T02:09:55.759Z,83.52
2018-12-07T02:11:03.823Z,83.62
2018-12-07T02:12:11.898Z,83.19
2018-12-07T02:13:19.935Z,83.62
2018-12-07T02:14:28.019Z,83.52
2018-12-07T02:15:36.066Z,83.33
2018-12-07T02:16:44.127Z,83.67
2018-12-07T02:17:52.205Z,83.23
2018-12-07T02:19:00.256Z,83.58
2018-12-07T02:20:08.331Z,83.29
2018-12-07T02:21:16.365Z,83.29
2018-12-07T02:22:24.439Z,83.48
2018-12-07T02:23:32.581Z,83.71
2018-12-07T02:24:40.566Z,83.48
2018-12-07T02:25:48.630Z,83.33
2018-12-07T02:26:56.684Z,83.23
2018-12-07T02:28:04.760Z,83.33
2018-12-07T02:29:12.811Z,83.42
2018-12-07T02:30:20.858Z,83.39
2018-12-07T02:31:28.926Z,83.52
2018-12-07T02:32:37.006Z,83.62
2018-12-07T02:33:45.057Z,83.33
2018-12-07T02:34:53.119Z,83.23
2018-12-07T02:36:01.163Z,83.29
2018-12-07T02:37:09.233Z,83.52
2018-12-07T02:38:17.301Z,83.23
2018-12-07T02:39:25.349Z,83.29
2018-12-07T02:40:33.428Z,83.04
2018-12-07T02:41:41.448Z,83.00
2018-12-07T02:42:49.543Z,83.52
2018-12-07T02:43:57.597Z,83.90
2018-12-07T02:45:05.665Z,83.39
2018-12-07T02:46:13.725Z,83.52
2018-12-07T02:47:21.769Z,83.71
2018-12-07T02:48:29.856Z,83.14
2018-12-07T02:49:37.902Z,83.71
2018-12-07T02:50:45.967Z,83.52
2018-12-07T02:51:54.031Z,83.42
2018-12-07T02:53:02.132Z,83.71
2018-12-07T02:54:10.143Z,83.14
2018-12-07T02:55:18.217Z,83.62
2018-12-07T02:56:26.290Z,83.23
2018-12-07T02:57:34.321Z,83.67
2018-12-07T02:58:42.410Z,83.48
2018-12-07T02:59:50.457Z,83.90
2018-12-07T03:00:58.513Z,83.67
2018-12-07T03:02:06.569Z,83.67
2018-12-07T03:03:14.631Z,83.67
2018-12-07T03:04:22.707Z,83.29
2018-12-07T03:05:30.747Z,83.86
2018-12-07T03:06:38.853Z,83.81
2018-12-07T03:07:46.885Z,83.33
2018-12-07T03:08:54.944Z,83.71
2018-12-07T03:10:03.006Z,84.00
2018-12-07T03:11:11.063Z,83.62
2018-12-07T03:12:19.129Z,83.71
2018-12-07T03:13:27.232Z,83.39
2018-12-07T03:14:35.265Z,83.29
2018-12-07T03:15:43.333Z,83.67
2018-12-07T03:16:51.356Z,83.67
2018-12-07T03:17:59.442Z,83.90
2018-12-07T03:19:07.499Z,83.29
2018-12-07T03:20:15.559Z,83.67
2018-12-07T03:21:23.635Z,83.67
2018-12-07T03:22:31.670Z,83.39
2018-12-07T03:23:39.780Z,83.95
2018-12-07T03:24:47.808Z,83.48
2018-12-07T03:25:55.866Z,83.58
2018-12-07T03:27:03.927Z,82.91
2018-12-07T03:28:11.984Z,83.29
2018-12-07T03:29:20.039Z,83.19
2018-12-07T03:30:28.116Z,83.19
2018-12-07T03:31:36.201Z,82.91
2018-12-07T03:32:44.234Z,83.10
2018-12-07T03:33:52.290Z,83.29
2018-12-07T03:35:00.366Z,83.39
2018-12-07T03:36:08.412Z,83.48
2018-12-07T03:37:16.494Z,83.29
2018-12-07T03:38:24.529Z,83.29
2018-12-07T03:39:32.590Z,83.39
2018-12-07T03:40:40.644Z,83.67
2018-12-07T03:41:48.721Z,83.48
2018-12-07T03:42:56.777Z,83.67
2018-12-07T03:44:04.852Z,83.48
2018-12-07T03:45:12.901Z,83.29
2018-12-07T03:46:20.955Z,83.67
2018-12-07T03:47:29.016Z,83.67
2018-12-07T03:48:37.091Z,83.29
2018-12-07T03:49:45.147Z,83.86
2018-12-07T03:50:53.207Z,83.58
2018-12-07T03:52:01.245Z,83.48
2018-12-07T03:53:09.325Z,83.29
2018-12-07T03:54:17.388Z,83.29
2018-12-07T03:55:25.459Z,83.39
2018-12-07T03:56:33.505Z,83.39
2018-12-07T03:57:41.549Z,83.19
2018-12-07T03:58:49.634Z,84.05
2018-12-07T03:59:57.687Z,83.39
2018-12-07T04:01:05.756Z,83.39
2018-12-07T04:02:13.811Z,83.67
2018-12-07T04:03:21.870Z,83.23
2018-12-07T04:04:29.945Z,83.86
2018-12-07T04:05:38.007Z,83.86
2018-12-07T04:06:46.074Z,83.48
2018-12-07T04:07:54.123Z,83.76
2018-12-07T04:09:02.194Z,83.52
2018-12-07T04:10:10.242Z,83.19
2018-12-07T04:11:18.309Z,82.81
2018-12-07T04:12:26.369Z,83.00
2018-12-07T04:13:34.431Z,83.10
2018-12-07T04:14:42.491Z,82.71
2018-12-07T04:15:50.550Z,82.81
2018-12-07T04:16:58.614Z,82.91
2018-12-07T04:18:06.674Z,82.81
2018-12-07T04:19:14.761Z,83.19
2018-12-07T04:20:22.891Z,83.10
2018-12-07T04:21:30.883Z,82.86
2018-12-07T04:22:38.924Z,83.00
2018-12-07T04:23:46.994Z,82.91
2018-12-07T04:24:55.041Z,82.81
2018-12-07T04:26:03.108Z,83.10
2018-12-07T04:27:11.134Z,83.10
2018-12-07T04:28:19.223Z,82.71
2018-12-07T04:29:27.303Z,83.00
2018-12-07T04:30:35.349Z,82.91
2018-12-07T04:31:43.411Z,81.86
2018-12-07T04:32:51.447Z,82.62
2018-12-07T04:33:59.519Z,82.15
2018-12-07T04:35:07.595Z,81.86
2018-12-07T04:36:15.666Z,81.96
2018-12-07T04:37:23.724Z,81.86
2018-12-07T04:38:31.761Z,82.34
2018-12-07T04:39:39.851Z,82.24
2018-12-07T04:40:48.093Z,82.24
2018-12-07T04:41:55.961Z,81.86
2018-12-07T04:43:04.019Z,81.96
2018-12-07T04:44:12.087Z,82.05
2018-12-07T04:45:20.140Z,81.86
2018-12-07T04:46:28.203Z,82.15
2018-12-07T04:47:36.278Z,82.24
2018-12-07T04:48:44.326Z,81.96
2018-12-07T04:49:52.397Z,81.67
2018-12-07T04:51:00.452Z,81.67
2018-12-07T04:52:08.510Z,81.20
2018-12-07T04:53:16.567Z,81.48
2018-12-07T04:54:24.631Z,81.67
2018-12-07T04:55:32.792Z,81.77
2018-12-07T04:56:40.735Z,81.29
2018-12-07T04:57:48.822Z,82.05
2018-12-07T04:58:56.879Z,81.48
2018-12-07T05:00:04.965Z,81.38
2018-12-07T05:01:12.995Z,81.90
2018-12-07T05:02:21.034Z,82.15
2018-12-07T05:03:29.128Z,81.96
2018-12-07T05:04:37.194Z,81.86
2018-12-07T05:05:45.240Z,82.05
2018-12-07T05:06:53.320Z,81.86
2018-12-07T05:08:01.351Z,82.62
2018-12-07T05:09:09.416Z,82.67
2018-12-07T05:10:17.485Z,82.43
2018-12-07T05:11:25.548Z,82.15
2018-12-07T05:12:33.613Z,81.86
2018-12-07T05:13:41.653Z,82.24
2018-12-07T05:14:49.738Z,82.19
2018-12-07T05:15:57.882Z,82.09
2018-12-07T05:17:05.858Z,82.24
2018-12-07T05:18:13.911Z,82.34
2018-12-07T05:19:21.975Z,81.90
2018-12-07T05:20:30.053Z,82.53
2018-12-07T05:21:38.109Z,82.05
2018-12-07T05:22:46.151Z,82.28
2018-12-07T05:23:54.217Z,82.19
2018-12-07T05:25:02.287Z,82.00
2018-12-07T05:26:10.354Z,82.28
2018-12-07T05:27:18.488Z,81.86
2018-12-07T05:28:26.463Z,81.96
2018-12-07T05:29:34.519Z,81.77
2018-12-07T05:30:42.576Z,82.15
2018-12-07T05:31:50.682Z,81.90
2018-12-07T05:32:58.710Z,81.71
2018-12-07T05:34:06.805Z,81.86
2018-12-07T05:35:14.823Z,81.71
2018-12-07T05:36:22.893Z,81.77
2018-12-07T05:37:30.945Z,81.90
2018-12-07T05:38:39.021Z,82.48
2018-12-07T05:39:48.059Z,81.90
2018-12-07T05:40:55.136Z,82.57
2018-12-07T05:42:03.209Z,82.09
2018-12-07T05:43:11.244Z,81.90
2018-12-07T05:44:19.330Z,82.67
2018-12-07T05:45:27.382Z,82.00
2018-12-07T05:46:35.438Z,82.38
2018-12-07T05:47:43.495Z,82.28
2018-12-07T05:48:51.541Z,82.09
2018-12-07T05:49:59.632Z,81.90
2018-12-07T05:51:07.673Z,81.90
2018-12-07T05:52:15.730Z,82.09
2018-12-07T05:53:23.898Z,82.00
2018-12-07T05:54:32.328Z,81.52
2018-12-07T05:55:39.935Z,81.24
2018-12-07T05:56:47.998Z,81.10
2018-12-07T05:57:56.057Z,81.24
2018-12-07T05:59:04.126Z,82.00
2018-12-07T06:00:12.172Z,81.24
2018-12-07T06:01:20.223Z,81.24
2018-12-07T06:02:28.298Z,81.81
2018-12-07T06:03:36.373Z,81.90
2018-12-07T06:04:44.827Z,81.90
2018-12-07T06:05:52.476Z,82.28
2018-12-07T06:07:00.559Z,81.90
2018-12-07T06:08:08.598Z,82.28
2018-12-07T06:09:16.665Z,81.90
2018-12-07T06:10:24.722Z,82.00
2018-12-07T06:11:32.813Z,82.19
2018-12-07T06:12:41.218Z,81.81
2018-12-07T06:13:49.096Z,81.71
2018-12-07T06:14:56.985Z,81.24
2018-12-07T06:16:05.500Z,81.24
2018-12-07T06:17:13.101Z,81.24
2018-12-07T06:18:21.140Z,81.62
2018-12-07T06:19:29.215Z,81.71
2018-12-07T06:20:37.771Z,81.43
2018-12-07T06:21:45.337Z,82.00
2018-12-07T06:22:53.402Z,82.09
2018-12-07T06:24:01.954Z,82.19
2018-12-07T06:25:09.576Z,81.90
2018-12-07T06:26:17.582Z,81.90
2018-12-07T06:27:25.637Z,81.90
2018-12-07T06:28:33.701Z,81.90
2018-12-07T06:29:41.758Z,82.28
2018-12-07T06:30:49.820Z,82.48
2018-12-07T06:31:57.884Z,82.86
2018-12-07T06:33:05.946Z,82.76
2018-12-07T06:34:14.005Z,82.67
2018-12-07T06:35:22.075Z,82.76
2018-12-07T06:36:30.125Z,82.86
2018-12-07T06:37:38.200Z,82.86
2018-12-07T06:38:46.249Z,82.86
2018-12-07T06:39:54.314Z,82.95
2018-12-07T06:41:02.382Z,82.76
2018-12-07T06:42:10.445Z,83.90
2018-12-07T06:43:18.507Z,83.04
2018-12-07T06:44:26.571Z,83.23
2018-12-07T06:45:35.255Z,83.33
2018-12-07T06:46:42.688Z,83.04
2018-12-07T06:47:50.720Z,83.04
2018-12-07T06:48:58.807Z,83.42
2018-12-07T06:50:06.877Z,83.23
2018-12-07T06:51:14.919Z,83.52
2018-12-07T06:52:22.987Z,83.33
2018-12-07T06:53:31.035Z,83.90
2018-12-07T06:54:39.111Z,83.04
2018-12-07T06:55:47.163Z,83.23
2018-12-07T06:56:55.230Z,83.33
2018-12-07T06:58:03.293Z,83.62
2018-12-07T06:59:11.340Z,83.90
2018-12-07T07:00:19.409Z,82.95
2018-12-07T07:01:27.483Z,82.95
2018-12-07T07:02:35.546Z,83.04
2018-12-07T07:03:43.609Z,83.14
2018-12-07T07:04:51.642Z,82.57
2018-12-07T07:05:59.736Z,82.57
2018-12-07T07:07:07.791Z,82.67
2018-12-07T07:08:15.851Z,82.38
2018-12-07T07:09:23.905Z,82.95
2018-12-07T07:10:31.961Z,82.76
2018-12-07T07:11:40.023Z,82.86
2018-12-07T07:12:48.094Z,82.48
2018-12-07T07:13:56.144Z,83.62
2018-12-07T07:15:04.209Z,83.90
2018-12-07T07:16:12.269Z,83.62
2018-12-07T07:17:20.324Z,83.14
2018-12-07T07:18:28.393Z,83.23
2018-12-07T07:19:36.459Z,82.95
2018-12-07T07:20:44.510Z,82.86
2018-12-07T07:21:52.581Z,82.67
2018-12-07T07:23:00.632Z,83.14
2018-12-07T07:24:08.732Z,83.23
2018-12-07T07:25:16.763Z,83.14
2018-12-07T07:26:24.816Z,83.42
2018-12-07T07:27:32.900Z,83.42
2018-12-07T07:28:40.929Z,82.76
2018-12-07T07:29:49.000Z,83.04
2018-12-07T07:30:57.072Z,83.71
2018-12-07T07:32:05.142Z,83.04
2018-12-07T07:33:13.201Z,83.04
2018-12-07T07:34:21.231Z,82.57
2018-12-07T07:35:29.313Z,82.48
2018-12-07T07:36:37.471Z,82.48
2018-12-07T07:37:45.447Z,83.23
2018-12-07T07:38:53.512Z,82.95
2018-12-07T07:40:01.527Z,82.76
2018-12-07T07:41:09.623Z,82.67
2018-12-07T07:42:17.705Z,82.95
2018-12-07T07:43:25.746Z,83.23
2018-12-07T07:44:33.813Z,82.95
2018-12-07T07:45:41.855Z,83.71
2018-12-07T07:46:49.925Z,82.95
2018-12-07T07:47:57.990Z,83.14
2018-12-07T07:49:06.059Z,82.76
2018-12-07T07:50:14.112Z,83.42
2018-12-07T07:51:22.168Z,82.95
2018-12-07T07:52:30.225Z,83.14
2018-12-07T07:53:38.286Z,83.33
2018-12-07T07:54:46.348Z,83.33
2018-12-07T07:55:54.416Z,83.14
2018-12-07T07:57:02.572Z,83.33
2018-12-07T07:58:10.527Z,83.14
2018-12-07T07:59:18.598Z,83.23
2018-12-07T08:00:26.690Z,82.95
2018-12-07T08:01:34.714Z,83.52
2018-12-07T08:02:42.786Z,83.52
2018-12-07T08:03:50.835Z,83.04
2018-12-07T08:04:58.902Z,82.95
2018-12-07T08:06:06.980Z,82.76
2018-12-07T08:07:15.022Z,82.57
2018-12-07T08:08:23.087Z,83.04
2018-12-07T08:09:31.147Z,83.23
2018-12-07T08:10:39.212Z,82.86
2018-12-07T08:11:47.273Z,83.04
2018-12-07T08:12:55.325Z,83.81
2018-12-07T08:14:03.399Z,83.52
2018-12-07T08:15:11.434Z,83.42
2018-12-07T08:16:19.519Z,83.81
2018-12-07T08:17:27.569Z,83.42
2018-12-07T08:18:35.635Z,83.33
2018-12-07T08:19:43.698Z,83.42
2018-12-07T08:20:51.764Z,83.90
2018-12-07T08:21:59.835Z,83.33
2018-12-07T08:23:14.441Z,83.62
2018-12-07T08:24:15.961Z,83.52
2018-12-07T08:25:24.015Z,83.90
2018-12-07T08:26:33.946Z,84.38
2018-12-07T08:27:40.639Z,83.81
2018-12-07T08:28:48.846Z,83.81
2018-12-07T08:29:56.822Z,83.62
2018-12-07T08:31:04.337Z,83.71
2018-12-07T08:32:12.391Z,83.81
2018-12-07T08:33:20.542Z,83.42
2018-12-07T08:34:28.495Z,83.42
2018-12-07T08:35:36.546Z,84.19
2018-12-07T08:36:44.620Z,86.18
2018-12-07T08:37:52.698Z,85.52
2018-12-07T08:39:00.737Z,86.09
2018-12-07T08:40:08.805Z,85.52
2018-12-07T08:41:16.875Z,85.33
2018-12-07T08:42:24.931Z,85.42
2018-12-07T08:43:32.997Z,85.90
2018-12-07T08:44:41.054Z,85.80
2018-12-07T08:45:49.113Z,86.66
2018-12-07T08:46:57.191Z,85.90
2018-12-07T08:48:05.243Z,87.37
2018-12-07T08:49:13.399Z,86.94
2018-12-07T08:50:21.357Z,86.61
2018-12-07T08:51:29.425Z,87.08
2018-12-07T08:52:37.508Z,86.42
2018-12-07T08:53:45.551Z,86.99
2018-12-07T08:54:53.605Z,86.76
2018-12-07T08:56:01.657Z,87.08
2018-12-07T08:57:09.737Z,87.80
2018-12-07T08:58:17.787Z,87.56
2018-12-07T08:59:25.855Z,87.37
2018-12-07T09:00:33.928Z,87.56
2018-12-07T09:01:41.979Z,88.04
2018-12-07T09:02:50.059Z,87.56
2018-12-07T09:03:58.107Z,87.75
2018-12-07T09:05:06.171Z,87.94
2018-12-07T09:06:14.237Z,87.65
2018-12-07T09:07:22.306Z,88.51
2018-12-07T09:08:30.354Z,87.75
2018-12-07T09:09:38.427Z,87.18
2018-12-07T09:10:46.489Z,87.94
2018-12-07T09:11:54.560Z,87.56
2018-12-07T09:13:02.607Z,88.23
2018-12-07T09:14:10.660Z,88.42
2018-12-07T09:15:18.730Z,87.56
2018-12-07T09:16:26.797Z,87.75
2018-12-07T09:17:34.850Z,88.42
2018-12-07T09:18:42.916Z,88.04
2018-12-07T09:19:51.067Z,88.51
2018-12-07T09:20:59.042Z,88.79
2018-12-07T09:22:07.097Z,89.27
2018-12-07T09:23:15.177Z,88.70
2018-12-07T09:24:23.249Z,89.08
2018-12-07T09:25:31.275Z,88.60
2018-12-07T09:26:39.346Z,88.70
2018-12-07T09:27:47.409Z,88.04
2018-12-07T09:28:55.483Z,89.08
2018-12-07T09:30:03.523Z,89.37
2018-12-07T09:31:11.571Z,90.42
2018-12-07T09:32:19.651Z,90.03
2018-12-07T09:33:27.716Z,89.56
2018-12-07T09:34:35.785Z,88.70
2018-12-07T09:35:43.858Z,87.46
2018-12-07T09:36:51.889Z,89.56
2018-12-07T09:37:59.971Z,89.08
2018-12-07T09:39:08.040Z,88.99
2018-12-07T09:40:16.127Z,88.51
2018-12-07T09:41:24.156Z,89.94
2018-12-07T09:42:32.226Z,88.42
2018-12-07T09:43:40.279Z,89.08
2018-12-07T09:44:48.361Z,89.08
2018-12-07T09:45:56.406Z,89.08
2018-12-07T09:47:04.457Z,89.08
2018-12-07T09:48:12.530Z,88.51
2018-12-07T09:49:20.610Z,89.65
2018-12-07T09:50:28.648Z,88.79
2018-12-07T09:51:36.717Z,88.60
2018-12-07T09:52:44.764Z,88.51
2018-12-07T09:53:52.831Z,88.89
2018-12-07T09:55:00.881Z,88.79
2018-12-07T09:56:08.966Z,89.75
2018-12-07T09:57:17.094Z,89.56
2018-12-07T09:58:25.089Z,90.51
2018-12-07T09:59:33.159Z,89.65
2018-12-07T10:00:41.196Z,89.47
2018-12-07T10:01:49.281Z,90.32
2018-12-07T10:02:57.327Z,89.56
2018-12-07T10:04:05.395Z,90.80
2018-12-07T10:05:13.464Z,89.65
2018-12-07T10:06:21.590Z,89.37
2018-12-07T10:07:19.637Z,88.99
2018-12-07T10:08:27.686Z,89.08
2018-12-07T10:09:35.742Z,91.08
2018-12-07T10:10:43.802Z,90.70
2018-12-07T10:11:51.860Z,90.51
2018-12-07T10:12:59.937Z,89.56
2018-12-07T10:14:08.076Z,89.18
2018-12-07T10:15:16.071Z,90.61
2018-12-07T10:16:24.123Z,89.08
2018-12-07T10:17:32.194Z,89.75
2018-12-07T10:18:40.291Z,89.37
2018-12-07T10:19:48.306Z,89.08
2018-12-07T10:20:56.364Z,89.18
2018-12-07T10:22:04.437Z,89.65
2018-12-07T10:23:12.496Z,91.17
2018-12-07T10:24:20.561Z,90.61
2018-12-07T10:25:28.613Z,90.61
2018-12-07T10:26:36.680Z,90.46
2018-12-07T10:27:44.746Z,91.31
2018-12-07T10:28:52.808Z,91.31
2018-12-07T10:30:00.866Z,91.31
2018-12-07T10:31:08.927Z,91.31
2018-12-07T10:32:17.015Z,91.79
2018-12-07T10:33:25.066Z,91.03
2018-12-07T10:34:33.115Z,91.89
2018-12-07T10:35:41.157Z,92.18
2018-12-07T10:36:49.251Z,92.36
2018-12-07T10:37:57.301Z,92.55
2018-12-07T10:39:05.386Z,92.94
2018-12-07T10:40:13.443Z,91.70
2018-12-07T10:41:21.470Z,92.74
2018-12-07T10:42:29.569Z,92.55
2018-12-07T10:43:37.606Z,92.74
2018-12-07T10:44:45.690Z,92.84
2018-12-07T10:45:53.751Z,92.65
2018-12-07T10:47:01.810Z,94.08
2018-12-07T10:48:09.888Z,93.46
2018-12-07T10:49:17.935Z,93.55
2018-12-07T10:50:26.015Z,96.32
2018-12-07T10:51:34.052Z,95.08
2018-12-07T10:52:42.129Z,97.08
2018-12-07T10:53:50.198Z,96.22
2018-12-07T10:54:58.247Z,96.32
2018-12-07T10:56:06.321Z,95.94
2018-12-07T10:57:14.386Z,95.65
2018-12-07T10:58:22.445Z,97.65
2018-12-07T10:59:30.511Z,97.36
2018-12-07T11:00:38.582Z,96.12
2018-12-07T11:01:46.635Z,98.13
2018-12-07T11:02:54.707Z,97.75
2018-12-07T11:04:02.758Z,96.32
2018-12-07T11:05:10.815Z,95.98
2018-12-07T11:06:18.897Z,96.60
2018-12-07T11:07:26.965Z,97.22
2018-12-07T11:08:35.021Z,97.31
2018-12-07T11:09:43.077Z,96.65
2018-12-07T11:10:51.117Z,94.84
2018-12-07T11:11:59.208Z,94.84
2018-12-07T11:13:07.269Z,96.27
2018-12-07T11:14:15.335Z,96.08
2018-12-07T11:15:23.403Z,94.93
2018-12-07T11:16:31.426Z,95.70
2018-12-07T11:17:39.514Z,94.46
2018-12-07T11:18:47.586Z,94.84
2018-12-07T11:19:55.647Z,93.22
2018-12-07T11:21:03.713Z,94.46
2018-12-07T11:22:11.755Z,94.70
2018-12-07T11:23:19.852Z,95.60
2018-12-07T11:24:27.895Z,95.75
2018-12-07T11:25:35.960Z,95.60
2018-12-07T11:26:44.024Z,96.89
2018-12-07T11:27:52.092Z,96.27
2018-12-07T11:29:00.148Z,96.70
2018-12-07T11:30:08.218Z,96.80
2018-12-07T11:31:16.271Z,97.08
2018-12-07T11:32:24.388Z,97.56
2018-12-07T11:33:32.414Z,98.22
2018-12-07T11:34:40.464Z,97.31
2018-12-07T11:35:48.527Z,97.17
2018-12-07T11:36:56.602Z,96.80
2018-12-07T11:38:04.659Z,96.70
2018-12-07T11:39:12.777Z,96.80
2018-12-07T11:40:20.774Z,96.03
2018-12-07T11:41:28.841Z,95.75
2018-12-07T11:42:36.915Z,95.75
2018-12-07T11:43:44.970Z,97.75
2018-12-07T11:44:53.020Z,97.94
2018-12-07T11:46:01.080Z,98.22
2018-12-07T11:47:09.178Z,98.70
2018-12-07T11:48:17.231Z,97.84
2018-12-07T11:49:25.291Z,97.84
2018-12-07T11:50:33.340Z,97.84
2018-12-07T11:51:41.395Z,97.94
2018-12-07T11:52:49.483Z,98.60
2018-12-07T11:53:57.536Z,98.03
2018-12-07T11:55:05.599Z,99.08
2018-12-07T11:56:13.675Z,98.79
2018-12-07T11:57:21.710Z,98.79
2018-12-07T11:58:29.794Z,98.70
2018-12-07T11:59:37.854Z,98.60
2018-12-07T12:00:45.951Z,98.36
2018-12-07T12:01:53.999Z,98.22
2018-12-07T12:03:02.045Z,99.84
2018-12-07T12:04:10.129Z,99.99
2018-12-07T12:05:18.201Z,99.08
2018-12-07T12:06:26.255Z,98.22
2018-12-07T12:07:34.321Z,98.22
2018-12-07T12:08:42.374Z,99.08
2018-12-07T12:09:50.434Z,98.79
2018-12-07T12:10:58.511Z,98.13
2018-12-07T12:12:06.560Z,98.41
2018-12-07T12:13:14.628Z,98.89
2018-12-07T12:14:22.701Z,97.94
2018-12-07T12:15:30.727Z,97.27
2018-12-07T12:16:38.813Z,98.13
2018-12-07T12:17:46.896Z,99.37
2018-12-07T12:18:54.945Z,98.13
2018-12-07T12:20:03.015Z,97.99
2018-12-07T12:21:11.069Z,97.75
2018-12-07T12:22:19.141Z,98.79
2018-12-07T12:23:27.201Z,99.99
2018-12-07T12:24:35.264Z,98.89
2018-12-07T12:25:43.332Z,99.99
2018-12-07T12:26:51.364Z,99.99
2018-12-07T12:27:59.462Z,99.99
2018-12-07T12:29:07.533Z,99.94
2018-12-07T12:30:15.580Z,99.99
2018-12-07T12:31:23.682Z,99.46
2018-12-07T12:32:31.699Z,99.99
2018-12-07T12:33:39.776Z,99.99
2018-12-07T12:34:47.826Z,99.75
2018-12-07T12:35:55.892Z,99.94
2018-12-07T12:37:03.969Z,99.99
2018-12-07T12:38:12.045Z,99.99
2018-12-07T12:39:20.104Z,99.99
2018-12-07T12:40:28.162Z,99.99
2018-12-07T12:41:36.228Z,99.99
2018-12-07T12:42:44.290Z,99.99
2018-12-07T12:43:52.357Z,99.99
2018-12-07T12:45:00.430Z,99.99
2018-12-07T12:46:08.488Z,99.99
2018-12-07T12:47:16.547Z,99.99
2018-12-07T12:48:24.603Z,99.99
2018-12-07T12:49:32.659Z,99.99
2018-12-07T12:50:40.719Z,99.99
2018-12-07T12:51:48.797Z,99.99
2018-12-07T12:52:56.856Z,99.99
2018-12-07T12:54:04.913Z,99.99
2018-12-07T12:55:12.984Z,99.99
2018-12-07T12:56:21.021Z,99.99
2018-12-07T12:57:29.106Z,99.99
2018-12-07T12:58:37.240Z,99.99
2018-12-07T12:59:45.230Z,99.99
2018-12-07T13:00:53.297Z,99.99
2018-12-07T13:02:01.355Z,99.99
2018-12-07T13:03:09.425Z,99.99
2018-12-07T13:04:17.495Z,99.99
2018-12-07T13:05:25.540Z,99.99
2018-12-07T13:06:33.634Z,99.99
2018-12-07T13:07:41.677Z,99.99
2018-12-07T13:08:49.748Z,99.99
2018-12-07T13:09:57.807Z,99.99
2018-12-07T13:11:05.880Z,99.99
2018-12-07T13:12:13.938Z,99.99
2018-12-07T13:13:21.999Z,99.99
2018-12-07T13:14:30.054Z,99.99
2018-12-07T13:15:38.134Z,99.99
2018-12-07T13:16:46.183Z,99.99
2018-12-07T13:17:54.248Z,99.99
2018-12-07T13:19:02.307Z,99.99
2018-12-07T13:20:10.384Z,99.99
2018-12-07T13:21:18.429Z,99.99
2018-12-07T13:22:26.508Z,99.99
2018-12-07T13:23:34.567Z,99.99
2018-12-07T13:24:42.628Z,99.99
2018-12-07T13:25:50.706Z,99.99
2018-12-07T13:26:58.752Z,99.99
2018-12-07T13:28:06.836Z,99.99
2018-12-07T13:29:14.889Z,99.99
2018-12-07T13:30:22.945Z,99.99
2018-12-07T13:31:31.019Z,99.99
2018-12-07T13:32:39.086Z,99.99
2018-12-07T13:33:47.131Z,99.99
2018-12-07T13:34:55.203Z,99.99
2018-12-07T13:36:03.272Z,99.99
2018-12-07T13:37:11.314Z,99.99
2018-12-07T13:38:19.402Z,99.99
2018-12-07T13:39:27.466Z,99.99
2018-12-07T13:40:35.693Z,99.99
2018-12-07T13:41:50.171Z,99.99
2018-12-07T13:42:51.679Z,99.99
2018-12-07T13:43:59.807Z,99.99
2018-12-07T13:45:07.934Z,99.99
2018-12-07T13:46:16.000Z,99.99
2018-12-07T13:47:23.913Z,99.99
2018-12-07T13:48:32.096Z,99.99
2018-12-07T13:49:40.118Z,99.99
2018-12-07T13:50:48.121Z,99.99
2018-12-07T13:51:56.231Z,99.99
2018-12-07T13:53:04.236Z,99.99
2018-12-07T13:54:12.331Z,99.99
2018-12-07T13:55:20.392Z,99.99
2018-12-07T13:56:28.426Z,99.99
2018-12-07T13:57:36.601Z,99.99
2018-12-07T13:58:44.646Z,99.99
2018-12-07T13:59:52.766Z,99.99
2018-12-07T14:01:00.765Z,99.99
2018-12-07T14:02:08.899Z,99.99
2018-12-07T14:03:16.883Z,99.99
2018-12-07T14:04:25.052Z,99.99
2018-12-07T14:05:33.129Z,99.99
2018-12-07T14:06:41.242Z,99.99
2018-12-07T14:07:49.172Z,99.99
2018-12-07T14:08:57.115Z,99.99
2018-12-07T14:10:05.304Z,99.99
2018-12-07T14:11:13.237Z,99.99
2018-12-07T14:12:21.289Z,99.99
2018-12-07T14:13:29.559Z,99.99
2018-12-07T14:14:37.435Z,99.99
2018-12-07T14:15:45.561Z,99.99
2018-12-07T14:16:53.653Z,99.99
2018-12-07T14:18:01.702Z,99.99
2018-12-07T14:19:09.695Z,99.99
2018-12-07T14:20:17.842Z,99.99
2018-12-07T14:21:25.816Z,99.99
2018-12-07T14:22:34.042Z,99.99
2018-12-07T14:23:41.973Z,99.99
2018-12-07T14:24:50.033Z,99.99
2018-12-07T14:25:58.060Z,99.99
2018-12-07T14:27:06.164Z,99.99
2018-12-07T14:28:14.204Z,99.99
2018-12-07T14:29:22.440Z,99.99
2018-12-07T14:30:30.333Z,99.99
2018-12-07T14:31:38.409Z,99.99
2018-12-07T14:32:46.601Z,99.99
2018-12-07T14:33:54.690Z,99.99
2018-12-07T14:35:02.639Z,99.99
2018-12-07T14:36:10.721Z,99.99